地図

経路データ

SID SEASON NUMBER BASIN SUBBASIN NAME ISO_TIME NATURE LAT LON WMO_WIND WMO_PRES WMO_AGENCY TRACK_TYPE DIST2LAND LANDFALL IFLAG USA_AGENCY USA_ATCF_ID USA_LAT USA_LON USA_RECORD USA_STATUS USA_WIND USA_PRES USA_SSHS USA_R34_NE USA_R34_SE USA_R34_SW USA_R34_NW USA_R50_NE USA_R50_SE USA_R50_SW USA_R50_NW USA_R64_NE USA_R64_SE USA_R64_SW USA_R64_NW USA_POCI USA_ROCI USA_RMW USA_EYE TOKYO_LAT TOKYO_LON TOKYO_GRADE TOKYO_WIND TOKYO_PRES TOKYO_R50_DIR TOKYO_R50_LONG TOKYO_R50_SHORT TOKYO_R30_DIR TOKYO_R30_LONG TOKYO_R30_SHORT TOKYO_LAND CMA_LAT CMA_LON CMA_CAT CMA_WIND CMA_PRES HKO_LAT HKO_LON HKO_CAT HKO_WIND HKO_PRES NEWDELHI_LAT NEWDELHI_LON NEWDELHI_GRADE NEWDELHI_WIND NEWDELHI_PRES NEWDELHI_CI NEWDELHI_DP NEWDELHI_POCI REUNION_LAT REUNION_LON REUNION_TYPE REUNION_WIND REUNION_PRES REUNION_TNUM REUNION_CI REUNION_RMW REUNION_R34_NE REUNION_R34_SE REUNION_R34_SW REUNION_R34_NW REUNION_R50_NE REUNION_R50_SE REUNION_R50_SW REUNION_R50_NW REUNION_R64_NE REUNION_R64_SE REUNION_R64_SW REUNION_R64_NW BOM_LAT BOM_LON BOM_TYPE BOM_WIND BOM_PRES BOM_TNUM BOM_CI BOM_RMW BOM_R34_NE BOM_R34_SE BOM_R34_SW BOM_R34_NW BOM_R50_NE BOM_R50_SE BOM_R50_SW BOM_R50_NW BOM_R64_NE BOM_R64_SE BOM_R64_SW BOM_R64_NW BOM_ROCI BOM_POCI BOM_EYE BOM_POS_METHOD BOM_PRES_METHOD NADI_LAT NADI_LON NADI_CAT NADI_WIND NADI_PRES WELLINGTON_LAT WELLINGTON_LON WELLINGTON_WIND WELLINGTON_PRES DS824_LAT DS824_LON DS824_STAGE DS824_WIND DS824_PRES TD9636_LAT TD9636_LON TD9636_STAGE TD9636_WIND TD9636_PRES TD9635_LAT TD9635_LON TD9635_WIND TD9635_PRES TD9635_ROCI NEUMANN_LAT NEUMANN_LON NEUMANN_CLASS NEUMANN_WIND NEUMANN_PRES MLC_LAT MLC_LON MLC_CLASS MLC_WIND MLC_PRES USA_GUST BOM_GUST BOM_GUST_PER REUNION_GUST REUNION_GUST_PER USA_SEAHGT USA_SEARAD_NE USA_SEARAD_SE USA_SEARAD_SW USA_SEARAD_NW STORM_SPEED STORM_DIR
1971207N10251 1971 80 EP MM HILARY 1971-07-26 00:00:00 TS 9.90000 -109.500 45 hurdat_epa main 1141 1141 O________OO___ hurdat_epa EP081971 9.90000 -109.500 TS 45 0 9.90000 -109.500 TC 45 9.90000 -109.500 1 4 269
1971207N10251 1971 80 EP MM HILARY 1971-07-26 03:00:00 TS 9.89578 -109.697 main 1153 1153 P________PP___ EP081971 9.89003 -109.695 TS 45 0 9.89003 -109.695 TC 45 9.91880 -109.703 1 4 271
1971207N10251 1971 80 EP MM HILARY 1971-07-26 06:00:00 TS 9.90801 -109.903 45 hurdat_epa main 1166 1166 O________OP___ hurdat_epa EP081971 9.90000 -109.900 TS 45 0 9.90000 -109.900 TC 45 9.94004 -109.915 1 4 277
1971207N10251 1971 80 EP MM HILARY 1971-07-26 09:00:00 TS 9.94722 -110.131 main 1179 1176 P________PP___ EP081971 9.94246 -110.128 TS 45 0 9.94246 -110.128 TC 45 9.96627 -110.144 1 5 281
1971207N10251 1971 80 EP MM HILARY 1971-07-26 12:00:00 TS 10.0000 -110.400 45 hurdat_epa main 1190 1190 O________OO___ hurdat_epa EP081971 10.0000 -110.400 TS 45 0 10.0000 -110.400 TC 45 10.0000 -110.400 1 6 279
1971207N10251 1971 80 EP MM HILARY 1971-07-26 15:00:00 TS 10.0429 -110.732 main 1209 1205 P________PP___ EP081971 10.0425 -110.743 TS 45 0 10.0425 -110.743 TC 45 10.0443 -110.688 1 7 279
1971207N10251 1971 80 EP MM HILARY 1971-07-26 18:00:00 TS 10.1010 -111.081 45 hurdat_epa main 1223 1223 O________OP___ hurdat_epa EP081971 10.1000 -111.100 TS 45 0 10.1000 -111.100 TC 45 10.1049 -111.005 1 7 283
1971207N10251 1971 80 EP MM HILARY 1971-07-26 21:00:00 TS 10.1855 -111.383 main 1232 1232 P________PP___ EP081971 10.1849 -111.393 TS 45 0 10.1849 -111.393 TC 45 10.1881 -111.345 1 6 288
1971207N10251 1971 80 EP MM HILARY 1971-07-27 00:00:00 TS 10.3000 -111.700 45 hurdat_epa main 1241 1241 O________OO___ hurdat_epa EP081971 10.3000 -111.700 TS 45 0 10.3000 -111.700 TC 45 10.3000 -111.700 2 7 290
1971207N10251 1971 80 EP MM HILARY 1971-07-27 03:00:00 TS 10.4373 -112.089 main 1259 1250 P________PP___ EP081971 10.4350 -112.093 TS 45 0 10.4350 -112.093 TC 45 10.4463 -112.073 2 8 291
1971207N10251 1971 80 EP MM HILARY 1971-07-27 06:00:00 TS 10.6040 -112.491 45 hurdat_epa main 1268 1267 O________OP___ hurdat_epa EP081971 10.6000 -112.500 TS 45 0 10.6000 -112.500 TC 45 10.6201 -112.457 2 8 295
1971207N10251 1971 80 EP MM HILARY 1971-07-27 09:00:00 TS 10.7957 -112.860 main 1280 1278 P________PP___ EP081971 10.7925 -112.865 TS 45 0 10.7925 -112.865 TC 45 10.8088 -112.838 2 8 300
1971207N10251 1971 80 EP MM HILARY 1971-07-27 12:00:00 TS 11.0000 -113.200 45 hurdat_epa main 1286 1285 O________OO___ hurdat_epa EP081971 11.0000 -113.200 TS 45 0 11.0000 -113.200 TC 45 11.0000 -113.200 2 8 302
1971207N10251 1971 80 EP MM HILARY 1971-07-27 15:00:00 TS 11.2034 -113.514 main 1293 1292 P________PP___ EP081971 11.2074 -113.508 TS 45 0 11.2074 -113.508 TC 45 11.1871 -113.538 2 7 303
1971207N10251 1971 80 EP MM HILARY 1971-07-27 18:00:00 TS 11.3945 -113.811 45 hurdat_epa main 1300 1299 O________OP___ hurdat_epa EP081971 11.4000 -113.800 TS 45 0 11.4000 -113.800 TC 45 11.3724 -113.852 2 7 301
1971207N10251 1971 80 EP MM HILARY 1971-07-27 21:00:00 TS 11.5613 -114.120 main 1307 1307 P________PP___ EP081971 11.5650 -114.115 TS 45 0 11.5650 -114.115 TC 45 11.5465 -114.141 2 7 298
1971207N10251 1971 80 EP MM HILARY 1971-07-28 00:00:00 TS 11.7000 -114.400 45 hurdat_epa main 1322 1322 O________OO___ hurdat_epa EP081971 11.7000 -114.400 TS 45 0 11.7000 -114.400 TC 45 11.7000 -114.400 3 5 297
1971207N10251 1971 80 EP MM HILARY 1971-07-28 03:00:00 TS 11.8070 -114.618 main 1330 1327 P________PP___ EP081971 11.8074 -114.615 TS 60 0 11.8074 -114.615 TC 60 11.8051 -114.629 3 4 297
1971207N10251 1971 80 EP MM HILARY 1971-07-28 06:00:00 TS 11.8985 -114.806 75 hurdat_epa main 1331 1325 O________OP___ hurdat_epa EP081971 11.9000 -114.800 HU 75 1 11.9000 -114.800 TC 75 11.8923 -114.830 3 4 295
1971207N10251 1971 80 EP MM HILARY 1971-07-28 09:00:00 TS 11.9846 -115.003 main 1329 1323 P________PP___ EP081971 11.9850 -115.000 HU 75 1 11.9850 -115.000 TC 75 11.9833 -115.017 3 4 298
1971207N10251 1971 80 EP MM HILARY 1971-07-28 12:00:00 TS 12.1000 -115.200 75 hurdat_epa main 1327 1316 O________OO___ hurdat_epa EP081971 12.1000 -115.200 HU 75 1 12.1000 -115.200 TC 75 12.1000 -115.200 4 5 308
1971207N10251 1971 80 EP MM HILARY 1971-07-28 15:00:00 TS 12.2855 -115.397 main 1316 1305 P________PP___ EP081971 12.2850 -115.400 HU 77 1 12.2850 -115.400 TC 77 12.2874 -115.384 4 6 316
1971207N10251 1971 80 EP MM HILARY 1971-07-28 18:00:00 TS 12.5000 -115.594 80 964 hurdat_epa main 1305 1290 O________OP___ hurdat_epa EP081971 12.5000 -115.600 HU 80 964 1 12.5000 -115.600 TC 80 964 12.4998 -115.570 4 6 319
1971207N10251 1971 80 EP MM HILARY 1971-07-28 21:00:00 TS 12.7144 -115.782 main 1295 1280 P________PP___ EP081971 12.7149 -115.785 HU 80 1 12.7149 -115.785 TC 80 12.7123 -115.771 4 6 315
1971207N10251 1971 80 EP MM HILARY 1971-07-29 00:00:00 TS 12.9000 -116.000 80 hurdat_epa main 1285 1281 O________OO___ hurdat_epa EP081971 12.9000 -116.000 HU 80 1 12.9000 -116.000 TC 80 12.9000 -116.000 4 6 302
1971207N10251 1971 80 EP MM HILARY 1971-07-29 03:00:00 TS 13.0194 -116.284 main 1292 1287 P________PP___ EP081971 13.0150 -116.285 HU 80 1 13.0150 -116.285 TC 80 13.0370 -116.279 4 6 290
1971207N10251 1971 80 EP MM HILARY 1971-07-29 06:00:00 TS 13.1090 -116.597 80 hurdat_epa main 1299 1295 O________OP___ hurdat_epa EP081971 13.1000 -116.600 HU 80 1 13.1000 -116.600 TC 80 13.1451 -116.585 4 6 288
1971207N10251 1971 80 EP MM HILARY 1971-07-29 09:00:00 TS 13.2121 -116.906 main 1307 1303 P________PP___ EP081971 13.2075 -116.907 HU 80 1 13.2075 -116.907 TC 80 13.2307 -116.898 4 6 288
1971207N10251 1971 80 EP MM HILARY 1971-07-29 12:00:00 TS 13.3000 -117.200 80 hurdat_epa main 1315 1315 O________OO___ hurdat_epa EP081971 13.3000 -117.200 HU 80 1 13.3000 -117.200 TC 80 13.3000 -117.200 4 6 285
1971207N10251 1971 80 EP MM HILARY 1971-07-29 15:00:00 TS 13.3564 -117.462 main 1325 1325 P________PP___ EP081971 13.3575 -117.458 HU 80 1 13.3575 -117.458 TC 80 13.3521 -117.481 4 5 281
1971207N10251 1971 80 EP MM HILARY 1971-07-29 18:00:00 TS 13.3985 -117.709 80 hurdat_epa main 1337 1337 O________OP___ hurdat_epa EP081971 13.4000 -117.700 HU 80 1 13.4000 -117.700 TC 80 13.3925 -117.745 4 5 280
1971207N10251 1971 80 EP MM HILARY 1971-07-29 21:00:00 TS 13.4413 -117.969 main 1357 1348 P________PP___ EP081971 13.4425 -117.965 HU 80 1 13.4425 -117.965 TC 80 13.4365 -117.987 4 5 282
1971207N10251 1971 80 EP MM HILARY 1971-07-30 00:00:00 TS 13.5000 -118.200 80 hurdat_epa main 1361 1359 O________OO___ hurdat_epa EP081971 13.5000 -118.200 HU 80 1 13.5000 -118.200 TC 80 13.5000 -118.200 4 4 291
1971207N10251 1971 80 EP MM HILARY 1971-07-30 03:00:00 TS 13.5870 -118.366 main 1366 1364 P________PP___ EP081971 13.5850 -118.365 HU 82 1 13.5850 -118.365 TC 82 13.5951 -118.371 4 4 305
1971207N10251 1971 80 EP MM HILARY 1971-07-30 06:00:00 TS 13.7025 -118.503 85 hurdat_epa main 1364 1363 O________OP___ hurdat_epa EP081971 13.7000 -118.500 HU 85 2 13.7000 -118.500 TC 85 13.7123 -118.515 4 4 313
1971207N10251 1971 80 EP MM HILARY 1971-07-30 09:00:00 TS 13.8376 -118.644 main 1363 1360 P________PP___ EP081971 13.8350 -118.643 HU 82 1 13.8350 -118.643 TC 82 13.8483 -118.652 4 4 316
1971207N10251 1971 80 EP MM HILARY 1971-07-30 12:00:00 TS 14.0000 -118.800 80 hurdat_epa main 1360 1351 O________OO___ hurdat_epa EP081971 14.0000 -118.800 HU 80 1 14.0000 -118.800 TC 80 14.0000 -118.800 4 5 317
1971207N10251 1971 80 EP MM HILARY 1971-07-30 15:00:00 TS 14.1994 -118.988 main 1358 1349 P________PP___ EP081971 14.2000 -118.992 HU 75 1 14.2000 -118.992 TC 75 14.1971 -118.969 4 6 317
1971207N10251 1971 80 EP MM HILARY 1971-07-30 18:00:00 TS 14.4005 -119.191 70 981 hurdat_epa main 1356 1348 O________OP___ hurdat_epa EP081971 14.4000 -119.200 HU 70 981 1 14.4000 -119.200 TC 70 981 14.4023 -119.155 4 5 315
1971207N10251 1971 80 EP MM HILARY 1971-07-30 21:00:00 TS 14.5742 -119.381 main 1356 1356 P________PP___ EP081971 14.5724 -119.385 HU 70 1 14.5724 -119.385 TC 70 14.5814 -119.363 4 5 307
1971207N10251 1971 80 EP MM HILARY 1971-07-31 00:00:00 TS 14.7000 -119.600 70 hurdat_epa main 1363 1362 O________OO___ hurdat_epa EP081971 14.7000 -119.600 HU 70 1 14.7000 -119.600 TC 70 14.7000 -119.600 4 5 293
1971207N10251 1971 80 EP MM HILARY 1971-07-31 03:00:00 TS 14.7846 -119.883 main 1374 1374 P________PP___ EP081971 14.7950 -119.885 HU 70 1 14.7950 -119.885 TC 70 14.7432 -119.875 4 6 278
1971207N10251 1971 80 EP MM HILARY 1971-07-31 06:00:00 TS 14.7840 -120.196 70 hurdat_epa main 1393 1393 O________OP___ hurdat_epa EP081971 14.8000 -120.200 HU 70 1 14.8000 -120.200 TC 70 14.7201 -120.178 4 6 260
1971207N10251 1971 80 EP MM HILARY 1971-07-31 09:00:00 TS 14.6834 -120.504 main 1421 1421 P________PP___ EP081971 14.6950 -120.508 HU 70 1 14.6950 -120.508 TC 70 14.6369 -120.491 4 7 244
1971207N10251 1971 80 EP MM HILARY 1971-07-31 12:00:00 TS 14.5000 -120.800 70 hurdat_epa main 1459 1459 O________OO___ hurdat_epa EP081971 14.5000 -120.800 HU 70 1 14.5000 -120.800 TC 70 14.5000 -120.800 4 7 232
1971207N10251 1971 80 EP MM HILARY 1971-07-31 15:00:00 TS 14.2628 -121.052 main 1496 1496 P________PP___ EP081971 14.2574 -121.050 HU 70 1 14.2574 -121.050 TC 70 14.2844 -121.062 4 7 225
1971207N10251 1971 80 EP MM HILARY 1971-07-31 18:00:00 TS 14.0054 -121.304 70 hurdat_epa main 1536 1536 O________OP___ hurdat_epa EP081971 14.0000 -121.300 HU 70 1 14.0000 -121.300 TC 70 14.0270 -121.321 4 7 226
1971207N10251 1971 80 EP MM HILARY 1971-07-31 21:00:00 TS 13.7722 -121.581 main 1573 1573 P________PP___ EP081971 13.7699 -121.578 HU 70 1 13.7699 -121.578 TC 70 13.7812 -121.594 4 7 235
1971207N10251 1971 80 EP MM HILARY 1971-08-01 00:00:00 TS 13.6000 -121.900 70 hurdat_epa main 1611 1611 O________OO___ hurdat_epa EP081971 13.6000 -121.900 HU 70 1 13.6000 -121.900 TC 70 13.6000 -121.900 4 7 249
1971207N10251 1971 80 EP MM HILARY 1971-08-01 03:00:00 TS 13.5089 -122.280 main 1647 1647 P________PP___ EP081971 13.5050 -122.285 HU 70 1 13.5050 -122.285 TC 70 13.5247 -122.260 4 8 263
1971207N10251 1971 80 EP MM HILARY 1971-08-01 06:00:00 TS 13.5045 -122.691 70 hurdat_epa main 1674 1674 O________OP___ hurdat_epa EP081971 13.5000 -122.700 HU 70 1 13.5000 -122.700 TC 70 13.5225 -122.655 4 8 275
1971207N10251 1971 80 EP MM HILARY 1971-08-01 09:00:00 TS 13.5727 -123.089 main 1694 1694 P________PP___ EP081971 13.5699 -123.092 HU 70 1 13.5699 -123.092 TC 70 13.5840 -123.073 4 8 284
1971207N10251 1971 80 EP MM HILARY 1971-08-01 12:00:00 TS 13.7000 -123.500 70 hurdat_epa main 1714 1714 O________OO___ hurdat_epa EP081971 13.7000 -123.500 HU 70 1 13.7000 -123.500 TC 70 13.7000 -123.500 4 9 287
1971207N10251 1971 80 EP MM HILARY 1971-08-01 15:00:00 TS 13.8222 -123.943 main 1736 1735 P________PP___ EP081971 13.8275 -123.950 HU 70 1 13.8275 -123.950 TC 70 13.8008 -123.914 4 9 289
1971207N10251 1971 80 EP MM HILARY 1971-08-01 18:00:00 TS 13.9915 -124.387 70 hurdat_epa main 1757 1757 O________OP___ hurdat_epa EP081971 14.0000 -124.400 HU 70 1 14.0000 -124.400 TC 70 13.9573 -124.336 4 9 294
1971207N10251 1971 80 EP MM HILARY 1971-08-01 21:00:00 TS 14.1949 -124.793 main 1772 1772 P________PP___ EP081971 14.1974 -124.800 HU 70 1 14.1974 -124.800 TC 70 14.1851 -124.765 4 9 303
1971207N10251 1971 80 EP MM HILARY 1971-08-02 00:00:00 TS 14.5000 -125.200 70 hurdat_epa main 1781 1781 O________OO___ hurdat_epa EP081971 14.5000 -125.200 HU 70 1 14.5000 -125.200 TC 70 14.5000 -125.200 4 11 313
1971207N10251 1971 80 EP MM HILARY 1971-08-02 03:00:00 TS 14.9559 -125.639 main 1776 1776 P________PP___ EP081971 14.9625 -125.642 HU 70 1 14.9625 -125.642 TC 70 14.9296 -125.626 4 13 319
1971207N10251 1971 80 EP MM HILARY 1971-08-02 06:00:00 TS 15.4879 -126.092 70 hurdat_epa main 1780 1763 O________OP___ hurdat_epa EP081971 15.5000 -126.100 HU 70 1 15.5000 -126.100 TC 70 15.4394 -126.062 4 14 320
1971207N10251 1971 80 EP MM HILARY 1971-08-02 09:00:00 TS 15.9958 -126.538 main 1763 1757 P________PP___ EP081971 15.9999 -126.543 HU 70 1 15.9999 -126.543 TC 70 15.9795 -126.517 4 13 319
1971207N10251 1971 80 EP MM HILARY 1971-08-02 12:00:00 TS 16.5000 -127.000 70 hurdat_epa main 1757 1745 O________OO___ hurdat_epa EP081971 16.5000 -127.000 HU 70 1 16.5000 -127.000 TC 70 16.5000 -127.000 4 14 318
1971207N10251 1971 80 EP MM HILARY 1971-08-02 15:00:00 TS 17.0209 -127.486 main 1753 1744 P________PP___ EP081971 17.0298 -127.478 HU 70 1 17.0298 -127.478 TC 70 16.9855 -127.521 4 14 316
1971207N10251 1971 80 EP MM HILARY 1971-08-02 18:00:00 TS 17.4870 -128.014 70 hurdat_epa main 1752 1752 O________OP___ hurdat_epa EP081971 17.5000 -128.000 HU 70 1 17.5000 -128.000 TC 70 17.4348 -128.069 4 14 308
1971207N10251 1971 80 EP MM HILARY 1971-08-02 21:00:00 TS 17.8573 -128.601 main 1770 1770 P________PP___ EP081971 17.8675 -128.592 HU 67 1 17.8675 -128.592 TC 67 17.8167 -128.633 4 13 299
1971207N10251 1971 80 EP MM HILARY 1971-08-03 00:00:00 TS 18.1000 -129.200 65 hurdat_epa main 1804 1804 O________OO___ hurdat_epa EP081971 18.1000 -129.200 HU 65 1 18.1000 -129.200 TC 65 18.1000 -129.200 4 12 287
1971207N10251 1971 80 EP MM HILARY 1971-08-03 03:00:00 TS 18.1991 -129.762 main 1847 1847 P________PP___ EP081971 18.1873 -129.758 HU 65 1 18.1873 -129.758 TC 65 18.2465 -129.776 4 11 276
1971207N10251 1971 80 EP MM HILARY 1971-08-03 06:00:00 TS 18.2195 -130.309 65 hurdat_epa main 1889 1889 O________OP___ hurdat_epa EP081971 18.2000 -130.300 HU 65 1 18.2000 -130.300 TC 65 18.2975 -130.347 4 11 273
1971207N10251 1971 80 EP MM HILARY 1971-08-03 09:00:00 TS 18.2600 -130.877 main 1933 1933 P________PP___ EP081971 18.2500 -130.873 HU 65 1 18.2500 -130.873 TC 65 18.2997 -130.894 4 10 274
1971207N10251 1971 80 EP MM HILARY 1971-08-03 12:00:00 TS 18.3000 -131.400 65 hurdat_epa main 1976 1976 O________OO___ hurdat_epa EP081971 18.3000 -131.400 HU 65 1 18.3000 -131.400 TC 65 18.3000 -131.400 2 9 275
1971207N10251 1971 80 EP MM HILARY 1971-08-03 15:00:00 TS 18.3464 -131.824 main 2011 2011 P________PP___ EP081971 18.3423 -131.823 HU 55 0 18.3423 -131.823 TC 55 18.3628 -131.831 2 8 278
1971207N10251 1971 80 EP MM HILARY 1971-08-03 18:00:00 TS 18.4067 -132.205 45 hurdat_epa main 2039 2039 O________OP___ hurdat_epa EP081971 18.4000 -132.200 TS 45 0 18.4000 -132.200 TC 45 18.4337 -132.223 2 7 282
1971207N10251 1971 80 EP MM HILARY 1971-08-03 21:00:00 TS 18.4964 -132.589 main 2068 2068 P________PP___ EP081971 18.4923 -132.585 TS 45 0 18.4923 -132.585 TC 45 18.5129 -132.603 2 8 284
1971207N10251 1971 80 EP MM HILARY 1971-08-04 00:00:00 TS 18.6000 -133.000 45 hurdat_epa main 2098 2098 O________OO___ hurdat_epa EP081971 18.6000 -133.000 TS 45 0 18.6000 -133.000 TC 45 18.6000 -133.000 2 9 283
1971207N10251 1971 80 EP MM HILARY 1971-08-04 03:00:00 TS 18.7003 -133.490 main 2137 2137 P________PP___ EP081971 18.7000 -133.493 TS 45 0 18.7000 -133.493 TC 45 18.7013 -133.482 2 10 282
1971207N10251 1971 80 EP MM HILARY 1971-08-04 06:00:00 TS 18.8016 -133.996 45 hurdat_epa main 2176 2131 O________OP___ hurdat_epa EP081971 18.8000 -134.000 TS 45 0 18.8000 -134.000 TC 45 18.8080 -133.980 2 10 283
1971207N10251 1971 80 EP MM HILARY 1971-08-04 09:00:00 TS 18.9081 -134.477 main 2131 2088 P________PP___ EP081971 18.9075 -134.480 TS 45 0 18.9075 -134.480 TC 45 18.9107 -134.463 2 9 283
1971207N10251 1971 80 EP MM HILARY 1971-08-04 12:00:00 TS 19.0000 -134.900 45 hurdat_epa main 2088 2056 O________OO___ hurdat_epa EP081971 19.0000 -134.900 TS 45 0 19.0000 -134.900 TC 45 19.0000 -134.900 2 7 282
1971207N10251 1971 80 EP MM HILARY 1971-08-04 15:00:00 TS 19.0594 -135.226 main 2056 2024 P________PP___ EP081971 19.0573 -135.223 TS 45 0 19.0573 -135.223 TC 45 19.0676 -135.238 2 6 280
1971207N10251 1971 80 EP MM HILARY 1971-08-04 18:00:00 TS 19.1043 -135.506 45 hurdat_epa main 2024 1992 O________OP___ hurdat_epa EP081971 19.1000 -135.500 TS 45 0 19.1000 -135.500 TC 45 19.1215 -135.530 2 5 280
1971207N10251 1971 80 EP MM HILARY 1971-08-04 21:00:00 TS 19.1529 -135.795 main 1992 1961 P________PP___ EP081971 19.1499 -135.793 TS 45 0 19.1499 -135.793 TC 45 19.1646 -135.807 2 6 280
1971207N10251 1971 80 EP MM HILARY 1971-08-05 00:00:00 TS 19.2000 -136.100 45 hurdat_epa main 1961 1929 O________OO___ hurdat_epa EP081971 19.2000 -136.100 TS 45 0 19.2000 -136.100 TC 45 19.2000 -136.100 2 6 279
1971207N10251 1971 80 EP MM HILARY 1971-08-05 03:00:00 TS 19.2515 -136.436 main 1929 1887 P________PP___ EP081971 19.2574 -136.435 TS 45 0 19.2574 -136.435 TC 45 19.2279 -136.441 2 7 278
1971207N10251 1971 80 EP MM HILARY 1971-08-05 06:00:00 TS 19.2899 -136.801 45 hurdat_epa main 1887 1845 O________OP___ hurdat_epa EP081971 19.3000 -136.800 TS 45 0 19.3000 -136.800 TC 45 19.2497 -136.805 2 7 273
1971207N10251 1971 80 EP MM HILARY 1971-08-05 09:00:00 TS 19.2942 -137.186 main 1845 1803 P________PP___ EP081971 19.2999 -137.185 TS 45 0 19.2999 -137.185 TC 45 19.2716 -137.191 2 8 271
1971207N10251 1971 80 EP MM HILARY 1971-08-05 12:00:00 TS 19.3000 -137.600 45 hurdat_epa main 1803 1761 O________OO___ hurdat_epa EP081971 19.3000 -137.600 TS 45 0 19.3000 -137.600 TC 45 19.3000 -137.600 2 8 273
1971207N10251 1971 80 EP MM HILARY 1971-08-05 15:00:00 TS 19.3417 -138.042 main 1761 1708 P________PP___ EP081971 19.3424 -138.042 TS 45 0 19.3424 -138.042 TC 45 19.3389 -138.041 2 9 277
1971207N10251 1971 80 EP MM HILARY 1971-08-05 18:00:00 TS 19.3970 -138.500 45 hurdat_epa main 1708 1666 O________OP___ hurdat_epa EP081971 19.4000 -138.500 TS 45 0 19.4000 -138.500 TC 45 19.3852 -138.500 2 9 277
1971207N10251 1971 80 EP MM HILARY 1971-08-05 21:00:00 TS 19.4477 -138.958 main 1656 1613 P________PP___ EP081971 19.4499 -138.958 TS 45 0 19.4499 -138.958 TC 45 19.4389 -138.959 2 9 277
1971207N10251 1971 80 EP MM HILARY 1971-08-06 00:00:00 TS 19.5000 -139.400 45 hurdat_epa main 1613 1571 O________OO___ hurdat_epa EP081971 19.5000 -139.400 TS 45 0 19.5000 -139.400 TC 45 19.5000 -139.400 2 8 277
1971207N10251 1971 80 EP MM HILARY 1971-08-06 03:00:00 TS 19.5401 -139.814 main 1571 1529 P________PP___ EP081971 19.5424 -139.815 TS 45 0 19.5424 -139.815 TC 45 19.5309 -139.809 2 8 278
1971207N10251 1971 80 EP CP HILARY 1971-08-06 06:00:00 TS 19.6047 -140.194 45 hurdat_epa main 1529 1497 O________OP___ hurdat_epa EP081971 19.6000 -140.200 TS 45 0 19.6000 -140.200 TC 45 19.5747 -140.196 2 7 283
1971207N10251 1971 80 EP CP HILARY 1971-08-06 09:00:00 TS 19.6983 -140.526 main 1497 1465 P________PP___ EP081971 19.6774 -140.565 TS 45 0 19.6774 -140.565 TC 45 19.6560 -140.559 2 6 292
1971207N10251 1971 80 EP CP HILARY 1971-08-06 12:00:00 TS 19.8391 -140.809 45 hurdat_epa main 1465 1434 O________OO___ hurdat_epa EP081971 19.8000 -140.900 TS 45 0 19.8000 -140.900 TC 45 19.8000 -140.900 2 6 299
1971207N10251 1971 80 EP CP HILARY 1971-08-06 15:00:00 TS 19.9988 -141.109 main 1434 1403 P________PP___ EP081971 19.9549 -141.208 TS 35 0 19.9549 -141.208 TC 35 20.0236 -141.219 2 7 305
1971207N10251 1971 80 EP CP HILARY 1971-08-06 18:00:00 TS 20.2399 -141.410 25 hurdat_epa main 1403 1362 O________OP___ hurdat_epa EP081971 20.2000 -141.500 TD 25 -1 20.2000 -141.500 TC 25 20.3129 -141.521 2 9 312
1971207N10251 1971 80 EP CP HILARY 1971-08-06 21:00:00 TS 20.5812 -141.800 main 1363 1334 P________PP___ EP081971 20.5651 -141.797 TD 25 -1 20.5651 -141.797 TC 25 20.6457 -141.813 2 10 320
1971207N10251 1971 80 EP CP HILARY 1971-08-07 00:00:00 TS 21.0000 -142.100 25 hurdat_epa main 1334 O________OO___ hurdat_epa EP081971 21.0000 -142.100 TD 25 -1 21.0000 -142.100 TC 25 21.0000 -142.100 6 10 326

IBTrACS Databaseについて

本データベースは、米国NOAAが公開する1842年以降の世界の熱帯低気圧のベストトラックデータアーカイブInternational Best Track Archive for Climate Stewardship (IBTrACS)を、ウェブで閲覧しやすい形式に変換したものです。

最終更新日:2021-12-06